createdAt,value
2018-04-23T00:00:42.985Z,86.30
2018-04-23T00:03:25.701Z,86.70
2018-04-23T00:05:54.245Z,87.30
2018-04-23T00:08:23.069Z,88.10
2018-04-23T00:10:52.823Z,88.00
2018-04-23T00:13:21.374Z,88.50
2018-04-23T00:15:50.683Z,89.70
2018-04-23T00:18:31.923Z,89.20
2018-04-23T00:21:01.489Z,90.00
2018-04-23T00:23:29.988Z,90.00
2018-04-23T00:25:58.510Z,90.10
2018-04-23T00:28:28.432Z,90.20
2018-04-23T00:30:57.690Z,90.80
2018-04-23T00:33:30.860Z,90.90
2018-04-23T00:35:59.694Z,90.90
2018-04-23T00:38:41.516Z,91.10
2018-04-23T00:41:10.704Z,90.80
2018-04-23T00:43:39.959Z,91.00
2018-04-23T00:46:08.462Z,91.20
2018-04-23T00:48:38.311Z,91.50
2018-04-23T00:51:08.379Z,91.80
2018-04-23T00:53:40.906Z,91.90
2018-04-23T00:56:10.822Z,91.90
2018-04-23T00:58:43.287Z,92.00
2018-04-23T01:01:12.925Z,92.20
2018-04-23T01:03:45.229Z,92.50
2018-04-23T01:06:13.711Z,92.80
2018-04-23T01:08:47.253Z,93.10
2018-04-23T01:11:16.053Z,92.90
2018-04-23T01:13:49.273Z,92.90
2018-04-23T01:16:17.798Z,92.80
2018-04-23T01:19:00.437Z,92.80
2018-04-23T01:21:29.265Z,92.50
2018-04-23T01:23:57.781Z,92.40
2018-04-23T01:26:26.296Z,92.50
2018-04-23T01:28:57.688Z,92.40
2018-04-23T01:31:27.698Z,92.10
2018-04-23T01:33:59.609Z,92.20
2018-04-23T01:36:29.524Z,92.20
2018-04-23T01:39:02.916Z,91.90
2018-04-23T01:41:31.445Z,91.80
2018-04-23T01:44:03.885Z,91.60
2018-04-23T01:46:33.180Z,91.50
2018-04-23T01:49:05.850Z,91.40
2018-04-23T01:51:35.877Z,91.20
2018-04-23T01:59:16.203Z,90.70
2018-04-23T02:01:44.824Z,91.10
2018-04-23T02:04:15.050Z,91.20
2018-04-23T02:06:43.548Z,91.60
2018-04-23T02:09:26.231Z,91.00
2018-04-23T02:11:55.772Z,91.40
2018-04-23T02:14:24.285Z,91.10
2018-04-23T02:16:53.999Z,91.00
2018-04-23T02:19:24.300Z,91.00
2018-04-23T02:21:53.582Z,91.20
2018-04-23T02:24:26.685Z,91.00
2018-04-23T02:26:55.565Z,90.80
2018-04-23T02:29:36.555Z,90.70
2018-04-23T02:32:05.101Z,89.80
2018-04-23T02:47:41.061Z,88.30
2018-04-23T02:50:10.709Z,89.20
2018-04-23T02:52:40.570Z,89.40
2018-04-23T02:55:09.852Z,89.60
2018-04-23T02:57:39.487Z,90.30
2018-04-23T03:00:09.009Z,90.00
2018-04-23T03:18:15.273Z,90.00
2018-04-23T03:20:49.686Z,88.90
2018-04-23T03:23:18.211Z,89.00
2018-04-23T03:28:19.477Z,88.60
2018-04-23T03:30:48.736Z,88.70
2018-04-23T03:35:48.176Z,88.90
2018-04-23T03:38:17.805Z,87.80
2018-04-23T03:40:46.723Z,88.30
2018-04-23T03:43:16.273Z,88.30
2018-04-23T03:45:44.760Z,87.70
2018-04-23T03:48:13.315Z,87.70
2018-04-23T03:50:42.150Z,87.30
2018-04-23T03:53:11.452Z,87.60
2018-04-23T03:55:40.748Z,88.10
2018-04-23T03:58:11.515Z,87.60
2018-04-23T04:00:41.244Z,89.00
2018-04-23T04:03:22.668Z,88.30
2018-04-23T04:05:51.445Z,88.40
2018-04-23T04:08:19.954Z,89.10
2018-04-23T04:10:49.228Z,89.80
2018-04-23T04:13:29.494Z,89.60
2018-04-23T04:17:12.003Z,90.10
2018-04-23T04:19:41.456Z,90.10
2018-04-23T04:22:11.172Z,90.00
2018-04-23T04:24:41.826Z,90.00
2018-04-23T04:27:12.463Z,89.90
2018-04-23T04:29:41.323Z,89.60
2018-04-23T04:32:09.858Z,89.30
2018-04-23T04:34:39.545Z,88.80
2018-04-23T04:37:08.077Z,88.70
2018-04-23T04:39:38.096Z,88.40
2018-04-23T04:42:08.484Z,88.40
2018-04-23T04:44:38.141Z,89.00
2018-04-23T04:47:06.713Z,88.30
2018-04-23T04:49:35.963Z,88.00
2018-04-23T04:52:04.533Z,88.10
2018-04-23T04:54:36.769Z,88.10
2018-04-23T04:57:06.752Z,87.70
2018-04-23T04:59:40.241Z,89.90
2018-04-23T05:02:09.961Z,88.70
2018-04-23T05:04:40.886Z,87.60
2018-04-23T05:07:10.922Z,87.40
2018-04-23T05:09:51.923Z,87.10
2018-04-23T05:12:22.516Z,86.50
2018-04-23T05:14:51.476Z,87.30
2018-04-23T05:17:20.813Z,86.70
2018-04-23T05:19:50.186Z,86.90
2018-04-23T05:22:20.028Z,86.70
2018-04-23T05:24:50.406Z,85.00
2018-04-23T05:27:20.145Z,85.50
2018-04-23T05:29:56.759Z,85.60
2018-04-23T05:32:25.672Z,84.10
2018-04-23T05:34:55.395Z,84.20
2018-04-23T05:39:58.126Z,82.20
2018-04-23T05:45:00.756Z,83.30
2018-04-23T05:47:29.295Z,81.60
2018-04-23T05:50:03.307Z,82.90
2018-04-23T05:52:33.363Z,81.80
2018-04-23T05:57:36.120Z,82.50
2018-04-23T06:00:17.962Z,81.50
2018-04-23T06:02:46.749Z,81.00
2018-04-23T06:05:16.187Z,82.10
2018-04-23T06:07:44.713Z,81.60
2018-04-23T06:10:14.290Z,82.00
2018-04-23T06:12:43.233Z,81.10
2018-04-23T06:15:16.360Z,80.80
2018-04-23T06:17:45.149Z,80.70
2018-04-23T06:20:18.760Z,80.80
2018-04-23T06:22:48.064Z,80.60
2018-04-23T06:25:21.140Z,79.90
2018-04-23T06:27:49.651Z,80.50
2018-04-23T06:30:23.314Z,80.10
2018-04-23T06:32:51.848Z,80.10
2018-04-23T06:35:34.323Z,79.50
2018-04-23T06:38:03.252Z,79.00
2018-04-23T06:40:31.808Z,79.20
2018-04-23T06:43:00.317Z,78.30
2018-04-23T06:45:29.996Z,77.00
2018-04-23T06:47:58.839Z,77.10
2018-04-23T06:50:31.601Z,76.30
2018-04-23T06:53:00.133Z,75.20
2018-04-23T06:55:33.870Z,75.10
2018-04-23T06:58:03.210Z,75.30
2018-04-23T07:00:45.863Z,75.00
2018-04-23T07:03:14.368Z,75.80
2018-04-23T07:05:44.907Z,74.10
2018-04-23T07:08:13.928Z,74.10
2018-04-23T07:10:43.261Z,72.10
2018-04-23T07:13:13.086Z,72.00
2018-04-23T07:15:45.175Z,74.10
2018-04-23T07:18:14.475Z,71.60
2018-04-23T07:33:53.125Z,63.70
2018-04-23T07:36:22.102Z,63.20
2018-04-23T07:39:05.777Z,64.00
2018-04-23T07:41:34.304Z,63.30
2018-04-23T07:44:03.250Z,62.20
2018-04-23T07:46:31.767Z,61.40
2018-04-23T07:49:01.073Z,60.30
2018-04-23T07:51:30.382Z,60.20
2018-04-23T07:54:05.109Z,58.50
2018-04-23T07:56:34.380Z,58.00
2018-04-23T07:59:06.718Z,57.90
2018-04-23T08:01:36.547Z,57.80
2018-04-23T08:04:08.929Z,57.10
2018-04-23T08:06:38.645Z,57.60
2018-04-23T08:09:12.497Z,56.60
2018-04-23T08:11:41.086Z,56.70
2018-04-23T08:14:15.272Z,57.00
2018-04-23T08:16:47.398Z,57.30
2018-04-23T08:21:45.589Z,56.70
2018-04-23T08:24:27.602Z,56.80
2018-04-23T08:29:26.919Z,58.00
2018-04-23T08:34:26.961Z,59.10
2018-04-23T08:36:55.532Z,57.30
2018-04-23T08:39:24.863Z,58.50
2018-04-23T08:41:53.903Z,57.30
2018-04-23T08:44:27.251Z,58.90
2018-04-23T08:46:56.552Z,59.80
2018-04-23T08:49:30.443Z,60.50
2018-04-23T08:51:59.793Z,61.70
2018-04-23T08:54:32.033Z,62.00
2018-04-23T08:57:02.428Z,60.60
2018-04-23T08:59:33.678Z,59.60
2018-04-23T09:02:02.962Z,59.30
2018-04-23T09:07:04.604Z,55.40
2018-04-23T09:09:46.032Z,55.50
2018-04-23T09:12:15.352Z,55.80
2018-04-23T09:14:44.720Z,56.20
2018-04-23T09:17:13.245Z,57.20
2018-04-23T09:19:43.233Z,56.40
2018-04-23T09:24:55.418Z,56.80
2018-04-23T09:27:23.938Z,58.10
2018-04-23T09:29:53.236Z,58.10
2018-04-23T09:37:22.736Z,61.40
2018-04-23T09:39:52.887Z,60.70
2018-04-23T09:42:22.194Z,61.80
2018-04-23T09:44:54.653Z,60.50
2018-04-23T09:47:23.578Z,62.10
2018-04-23T09:52:35.382Z,62.10
2018-04-23T10:08:43.512Z,58.60
2018-04-23T10:11:12.787Z,61.40
2018-04-23T10:13:41.705Z,57.90
2018-04-23T10:16:12.227Z,60.10
2018-04-23T10:18:40.878Z,58.40
2018-04-23T10:21:14.596Z,58.10
2018-04-23T10:23:44.257Z,58.30
2018-04-23T10:26:15.989Z,59.40
2018-04-23T10:28:44.795Z,58.40
2018-04-23T10:31:18.070Z,59.40
2018-04-23T10:36:21.020Z,58.60
2018-04-23T10:38:51.145Z,57.70
2018-04-23T10:41:22.269Z,58.10
2018-04-23T10:43:51.926Z,57.20
2018-04-23T10:46:24.588Z,56.80
2018-04-23T10:48:53.815Z,57.60
2018-04-23T10:51:28.078Z,55.70
2018-04-23T10:56:30.392Z,56.70
2018-04-23T10:58:58.889Z,56.10
2018-04-23T11:04:01.605Z,55.10
2018-04-23T11:06:35.457Z,54.90
2018-04-23T11:09:06.292Z,55.70
2018-04-23T11:14:06.858Z,53.90
2018-04-23T11:16:42.635Z,54.30
2018-04-23T11:21:43.086Z,55.70
2018-04-23T11:24:12.013Z,53.40
2018-04-23T11:29:13.966Z,56.10
2018-04-23T11:31:47.977Z,55.90
2018-04-23T11:34:16.533Z,55.00
2018-04-23T11:36:49.844Z,56.00
2018-04-23T11:39:18.661Z,55.40
2018-04-23T11:41:51.365Z,55.90
2018-04-23T11:44:19.885Z,55.80
2018-04-23T11:46:52.796Z,55.00
2018-04-23T11:49:21.367Z,54.60
2018-04-23T11:51:49.881Z,55.00
2018-04-23T11:54:20.398Z,54.70
2018-04-23T11:56:48.900Z,55.00
2018-04-23T12:01:47.264Z,54.90
2018-04-23T12:04:15.782Z,53.60
2018-04-23T12:06:45.061Z,53.80
2018-04-23T12:09:14.369Z,53.20
2018-04-23T12:11:44.429Z,52.00
2018-04-23T12:14:13.829Z,51.00
2018-04-23T12:16:43.456Z,51.20
2018-04-23T12:19:13.481Z,51.90
2018-04-23T12:21:42.050Z,51.40
2018-04-23T12:24:23.139Z,51.50
2018-04-23T12:26:51.694Z,52.50
2018-04-23T12:29:22.018Z,53.10
2018-04-23T12:31:50.542Z,52.20
2018-04-23T12:34:19.071Z,53.10
2018-04-23T12:36:48.610Z,52.10
2018-04-23T12:39:21.091Z,52.00
2018-04-23T12:41:50.801Z,51.50
2018-04-23T12:44:22.841Z,51.60
2018-04-23T12:49:25.285Z,52.70
2018-04-23T12:51:55.585Z,51.50
2018-04-23T12:54:27.674Z,52.20
2018-04-23T12:56:56.996Z,51.10
2018-04-23T12:59:30.976Z,50.40
2018-04-23T13:01:59.527Z,50.90
2018-04-23T13:04:41.517Z,50.90
2018-04-23T13:07:10.346Z,50.10
2018-04-23T13:09:39.603Z,51.20
2018-04-23T13:12:08.501Z,50.50
2018-04-23T13:14:37.309Z,50.30
2018-04-23T13:17:05.864Z,50.90
2018-04-23T13:19:42.083Z,51.50
2018-04-23T13:22:11.904Z,52.60
2018-04-23T13:24:41.210Z,50.00
2018-04-23T13:27:09.754Z,50.10
2018-04-23T13:29:43.425Z,49.80
2018-04-23T13:34:46.694Z,50.20
2018-04-23T13:39:49.905Z,50.10
2018-04-23T13:42:19.285Z,48.00
2018-04-23T13:44:52.796Z,48.80
2018-04-23T13:47:21.336Z,48.90
2018-04-23T13:49:55.247Z,49.40
2018-04-23T13:52:24.165Z,48.50
2018-04-23T13:57:26.263Z,47.60
2018-04-23T13:59:59.302Z,49.20
2018-04-23T14:02:29.076Z,49.50
2018-04-23T14:11:41.138Z,48.80
2018-04-23T14:14:10.489Z,48.70
2018-04-23T14:16:40.594Z,50.10
2018-04-23T14:19:10.847Z,48.70
2018-04-23T14:21:40.657Z,49.30
2018-04-23T14:29:24.155Z,50.00
2018-04-23T14:31:54.476Z,49.80
2018-04-23T14:34:23.377Z,51.20
2018-04-23T14:36:53.439Z,50.10
2018-04-23T14:41:51.949Z,48.00
2018-04-23T14:44:22.503Z,48.90
2018-04-23T14:46:51.688Z,48.50
2018-04-23T14:49:24.849Z,47.90
2018-04-23T14:51:53.431Z,47.90
2018-04-23T14:54:25.555Z,49.70
2018-04-23T14:56:54.495Z,49.10
2018-04-23T14:59:28.037Z,49.40
2018-04-23T15:01:56.905Z,49.30
2018-04-23T15:04:29.446Z,49.10
2018-04-23T15:06:58.462Z,48.20
2018-04-23T15:09:34.061Z,48.30
2018-04-23T15:12:03.384Z,49.40
2018-04-23T15:14:34.408Z,48.60
2018-04-23T15:17:03.520Z,49.20
2018-04-23T15:19:44.882Z,49.60
2018-04-23T15:24:45.396Z,48.20
2018-04-23T15:27:14.422Z,47.90
2018-04-23T15:29:44.805Z,48.40
2018-04-23T15:32:13.672Z,49.00
2018-04-23T15:37:12.257Z,48.90
2018-04-23T15:39:45.001Z,49.20
2018-04-23T15:42:14.574Z,49.40
2018-04-23T15:44:49.465Z,48.80
2018-04-23T15:47:18.408Z,49.00
2018-04-23T15:49:51.933Z,47.70
2018-04-23T15:52:21.543Z,48.40
2018-04-23T15:54:53.844Z,49.50
2018-04-23T15:59:57.045Z,49.00
2018-04-23T16:04:59.164Z,47.70
2018-04-23T16:07:28.445Z,48.70
2018-04-23T16:10:09.941Z,47.80
2018-04-23T16:12:38.762Z,47.80
2018-04-23T16:15:07.312Z,46.50
2018-04-23T16:17:36.684Z,45.60
2018-04-23T16:20:06.824Z,47.40
2018-04-23T16:22:36.143Z,46.00
2018-04-23T16:25:13.262Z,45.20
2018-04-23T16:27:42.517Z,46.70
2018-04-23T16:30:13.586Z,47.20
2018-04-23T16:32:43.606Z,47.60
2018-04-23T16:35:15.001Z,45.60
2018-04-23T16:40:16.599Z,47.20
2018-04-23T16:42:47.137Z,46.90
2018-04-23T16:45:19.988Z,48.80
2018-04-23T16:47:48.536Z,47.60
2018-04-23T16:50:29.780Z,47.20
2018-04-23T16:52:59.818Z,48.20
2018-04-23T16:55:28.798Z,49.20
2018-04-23T16:57:57.641Z,49.00
2018-04-23T17:00:26.256Z,48.60
2018-04-23T17:02:54.868Z,49.00
2018-04-23T17:05:27.964Z,50.20
2018-04-23T17:10:29.925Z,49.50
2018-04-23T17:12:58.732Z,50.80
2018-04-23T17:15:31.237Z,51.60
2018-04-23T17:17:59.789Z,52.00
2018-04-23T17:20:33.434Z,52.10
2018-04-23T17:23:02.437Z,52.20
2018-04-23T17:25:44.507Z,53.00
2018-04-23T17:28:14.126Z,52.90
2018-04-23T17:30:44.154Z,53.00
2018-04-23T17:33:17.396Z,53.20
2018-04-23T17:38:15.757Z,53.90
2018-04-23T17:40:45.087Z,54.80
2018-04-23T17:43:14.633Z,54.30
2018-04-23T17:45:47.124Z,54.40
2018-04-23T17:48:16.101Z,54.10
2018-04-23T17:50:48.664Z,54.50
2018-04-23T17:53:19.893Z,54.40
2018-04-23T17:55:50.986Z,54.00
2018-04-23T17:58:20.592Z,54.00
2018-04-23T18:00:52.033Z,54.50
2018-04-23T18:03:22.982Z,54.80
2018-04-23T18:05:56.155Z,54.60
2018-04-23T18:08:25.805Z,55.00
2018-04-23T18:11:06.823Z,54.80
2018-04-23T18:13:35.829Z,55.10
2018-04-23T18:16:04.925Z,55.50
2018-04-23T18:21:04.166Z,55.40
2018-04-23T18:23:33.796Z,55.80
2018-04-23T18:31:17.649Z,56.40
2018-04-23T18:33:46.868Z,56.80
2018-04-23T18:36:15.446Z,57.00
2018-04-23T18:38:44.027Z,57.20
2018-04-23T18:41:14.873Z,57.10
2018-04-23T18:43:43.771Z,57.60
2018-04-23T18:48:43.525Z,57.50
2018-04-23T18:51:18.496Z,57.50
2018-04-23T18:53:47.308Z,57.70
2018-04-23T18:58:49.805Z,58.50
2018-04-23T19:01:22.780Z,58.00
2018-04-23T19:03:52.489Z,58.60
2018-04-23T19:06:25.222Z,58.90
2018-04-23T19:08:53.755Z,60.00
2018-04-23T19:11:35.076Z,58.60
2018-04-23T19:14:04.394Z,59.20
2018-04-23T19:16:33.980Z,58.70
2018-04-23T19:19:05.417Z,59.40
2018-04-23T19:21:34.377Z,59.50
2018-04-23T19:24:04.151Z,59.20
2018-04-23T19:26:34.675Z,59.20
2018-04-23T19:29:04.760Z,59.10
2018-04-23T19:31:37.322Z,59.40
2018-04-23T19:34:06.563Z,59.50
2018-04-23T19:36:47.942Z,59.80
2018-04-23T19:39:16.737Z,60.00
2018-04-23T19:44:15.317Z,60.10
2018-04-23T19:46:44.660Z,60.40
2018-04-23T19:49:14.160Z,60.50
2018-04-23T19:54:16.081Z,61.00
2018-04-23T19:56:48.868Z,61.00
2018-04-23T19:59:17.519Z,60.40
2018-04-23T20:04:20.174Z,61.00
2018-04-23T20:06:53.864Z,61.20
2018-04-23T20:09:23.818Z,61.70
2018-04-23T20:11:58.565Z,61.70
2018-04-23T20:14:28.626Z,62.00
2018-04-23T20:16:59.142Z,62.20
2018-04-23T20:19:28.798Z,62.60
2018-04-23T20:22:01.902Z,62.80
2018-04-23T20:24:31.925Z,63.10
2018-04-23T20:27:05.740Z,63.90
2018-04-23T20:29:34.516Z,63.00
2018-04-23T20:34:36.562Z,64.50
2018-04-23T20:37:18.999Z,64.70
2018-04-23T20:39:48.706Z,65.00
2018-04-23T20:42:18.753Z,65.10
2018-04-23T20:44:47.308Z,65.00
2018-04-23T20:47:16.617Z,65.90
2018-04-23T20:49:46.990Z,65.30
2018-04-23T20:52:17.168Z,65.70
2018-04-23T20:54:45.711Z,65.50
2018-04-23T20:57:18.759Z,65.70
2018-04-23T20:59:47.313Z,65.60
2018-04-23T21:02:21.412Z,66.20
2018-04-23T21:04:50.794Z,65.80
2018-04-23T21:07:24.310Z,66.10
2018-04-23T21:09:54.277Z,66.60
2018-04-23T21:14:54.430Z,67.10
2018-04-23T21:17:28.594Z,67.50
2018-04-23T21:19:57.529Z,67.70
2018-04-23T21:22:30.407Z,67.60
2018-04-23T21:24:59.635Z,67.60
2018-04-23T21:29:59.422Z,67.90
2018-04-23T21:32:33.572Z,68.30
2018-04-23T21:35:03.431Z,68.00
2018-04-23T21:37:44.780Z,67.90
2018-04-23T21:40:14.114Z,68.10
2018-04-23T21:42:43.790Z,68.30
2018-04-23T21:45:14.072Z,68.40
2018-04-23T21:47:44.003Z,68.70
2018-04-23T21:50:12.709Z,69.20
2018-04-23T21:52:44.555Z,69.10
2018-04-23T21:55:15.025Z,69.20
2018-04-23T21:57:46.982Z,69.40
2018-04-23T22:02:57.518Z,70.00
2018-04-23T22:05:27.211Z,70.50
2018-04-23T22:07:56.977Z,70.70
2018-04-23T22:10:27.272Z,71.40
2018-04-23T22:12:56.007Z,70.90
2018-04-23T22:15:24.575Z,70.90
2018-04-23T22:17:56.513Z,71.10
2018-04-23T22:20:25.925Z,70.90
2018-04-23T22:22:59.343Z,71.00
2018-04-23T22:25:28.965Z,71.10
2018-04-23T22:28:03.462Z,70.80
2018-04-23T22:33:04.867Z,70.70
2018-04-23T22:35:34.430Z,71.10
2018-04-23T22:38:07.621Z,70.90
2018-04-23T22:40:37.705Z,71.00
2018-04-23T22:43:11.485Z,71.20
2018-04-23T22:45:40.085Z,71.20
2018-04-23T22:48:12.771Z,71.30
2018-04-23T22:50:41.572Z,71.40
2018-04-23T22:53:14.560Z,71.60
2018-04-23T22:55:43.969Z,71.60
2018-04-23T22:58:17.409Z,71.80
2018-04-23T23:00:45.959Z,71.80
2018-04-23T23:03:28.326Z,72.20
2018-04-23T23:05:57.194Z,72.30
2018-04-23T23:08:26.154Z,72.20
2018-04-23T23:10:55.764Z,72.70
2018-04-23T23:13:24.690Z,73.40
2018-04-23T23:15:53.960Z,72.10
2018-04-23T23:18:25.568Z,72.20
2018-04-23T23:20:54.080Z,72.60
2018-04-23T23:23:28.215Z,72.80
2018-04-23T23:28:30.388Z,72.70
2018-04-23T23:31:00.150Z,72.60
2018-04-23T23:33:31.965Z,72.60
2018-04-23T23:36:02.670Z,72.20
2018-04-23T23:38:34.644Z,72.50
2018-04-23T23:41:04.504Z,72.70
2018-04-23T23:43:37.852Z,72.70
2018-04-23T23:46:07.153Z,73.10
2018-04-23T23:48:40.305Z,72.60
2018-04-23T23:51:09.149Z,72.30
2018-04-23T23:53:42.954Z,72.30
2018-04-23T23:56:12.281Z,72.50
2018-04-23T23:58:43.946Z,72.10
